WetterOnline ( https://www.wetteronline.de )

Wetter aktuell Gießen

Aktuelles Wetter: Gießen (195m)

6-stündlich | Neueste Meldungen
Ortszeit Temperatur Wetter
Sa, 26.11. 13:00 4.3° C bedeckt
Sa, 26.11. 7:00 0.2° C Nebel
Sa, 26.11. 1:00 6.0° C bewölkt
Fr, 25.11. 19:00 6.1° C leichter Regen
Fr, 25.11. 13:00 7.0° C bedeckt
Fr, 25.11. 7:00 4.0° C bedeckt
Fr, 25.11. 1:00 3.2° C wolkenlos
Do, 24.11. 19:00 2.8° C fast wolkenlos
Ortszeit Temperatur Wetter
Sa, 26.11. 13:30 4.6° C bedeckt
Sa, 26.11. 13:20 4.6° C bedeckt
Sa, 26.11. 13:10 4.6° C bedeckt
Sa, 26.11. 13:00 4.3° C bedeckt
Sa, 26.11. 12:50 4.3° C bedeckt
Sa, 26.11. 12:40 4.2° C bedeckt
Sa, 26.11. 12:30 4.6° C bedeckt
Sa, 26.11. 12:00 4.5° C bedeckt
Sa, 26.11. 11:30 4.3° C bedeckt
Sa, 26.11. 11:00 4.0° C Nebel
Sa, 26.11. 10:30 2.9° C Nebel
Ortszeit Relative Feuchte Sichtweite
Sa, 26.11. 13:00 99% 10 km
Sa, 26.11. 7:00 100% <100 m
Sa, 26.11. 1:00 97% 19 km
Fr, 25.11. 19:00 99% 4.4 km
Fr, 25.11. 13:00 91% 18 km
Fr, 25.11. 7:00 97% 12 km
Fr, 25.11. 1:00 99% 13 km
Do, 24.11. 19:00 96% 21 km
Ortszeit Relative Feuchte Sichtweite
Sa, 26.11. 13:30 99% 9 km
Sa, 26.11. 13:20 99% -
Sa, 26.11. 13:10 99% -
Sa, 26.11. 13:00 99% 10 km
Sa, 26.11. 12:50 99% -
Sa, 26.11. 12:40 99% -
Sa, 26.11. 12:30 99% 8 km
Sa, 26.11. 12:00 99% 8 km
Sa, 26.11. 11:30 100% 9 km
Sa, 26.11. 11:00 100% 11 km
Sa, 26.11. 10:30 100% 2.7 km
Ortszeit Niederschlagsmenge Niederschlagsart
Sa, 26.11. 13:00 0.0 l/m2 in 6 Std. -
Sa, 26.11. 7:00 0.1 l/m2 in 12 Std. -
Sa, 26.11. 1:00 0.1 l/m2 in 6 Std. Regen
Fr, 25.11. 19:00 0.6 l/m2 in 12 Std. Regen
Fr, 25.11. 13:00 0.5 l/m2 in 6 Std. Regen
Fr, 25.11. 7:00 0.0 l/m2 in 12 Std. -
Fr, 25.11. 1:00 0.0 l/m2 in 6 Std. -
Do, 24.11. 19:00 0.3 l/m2 in 12 Std. Regen
Ortszeit Niederschlagsmenge Niederschlagsart
Sa, 26.11. 13:30 0.0 l/m2 in 1 Std. -
Sa, 26.11. 13:20 keine Meldung -
Sa, 26.11. 13:10 keine Meldung -
Sa, 26.11. 13:00 0.0 l/m2 in 1 Std. -
Sa, 26.11. 12:50 keine Meldung -
Sa, 26.11. 12:40 keine Meldung -
Sa, 26.11. 12:30 0.0 l/m2 in 1 Std. -
Sa, 26.11. 12:00 0.0 l/m2 in 1 Std. -
Sa, 26.11. 11:30 0.0 l/m2 in 1 Std. -
Sa, 26.11. 11:00 0.0 l/m2 in 1 Std. -
Sa, 26.11. 10:30 0.0 l/m2 in 1 Std. -
Ortszeit Stärke Spitze Richtung
km/h Bft. km/h Grad Sektor
Sa, 26.11. 13:00 15 3 22 220° SW
Sa, 26.11. 7:00 4 1 25 50° NO
Sa, 26.11. 1:00 11 2 18 230° SW
Fr, 25.11. 19:00 4 1 11 30° NO
Fr, 25.11. 13:00 0 0 14 - -
Fr, 25.11. 7:00 7 2 14 130° SO
Fr, 25.11. 1:00 4 1 7 40° NO
Do, 24.11. 19:00 7 2 40 250° W
Ortszeit Stärke Spitze Richtung
km/h Bft. km/h Grad Sektor
Sa, 26.11. 13:30 11 2 15 200° S
Sa, 26.11. 13:20 11 2 - 200° S
Sa, 26.11. 13:10 9 2 - 210° SW
Sa, 26.11. 13:00 15 3 20 220° SW
Sa, 26.11. 12:50 15 3 - 220° SW
Sa, 26.11. 12:40 15 3 - 240° SW
Sa, 26.11. 12:30 13 3 19 240° SW
Sa, 26.11. 12:00 14 3 22 240° SW
Sa, 26.11. 11:30 15 3 19 230° SW
Sa, 26.11. 11:00 7 2 14 210° SW
Sa, 26.11. 10:30 6 1 7 210° SW
Ortszeit Untergrenze Bedeckung Gattung
total tief tief mittel hoch
Sa, 26.11. 13:00 90 m 8/8 8/8 - - -
Sa, 26.11. 7:00 <30 m 3/8 0/8 - - -
Sa, 26.11. 1:00 1410 m 7/8 7/8 - - -
Fr, 25.11. 19:00 990 m 5/8 5/8 - - -
Fr, 25.11. 13:00 270 m 8/8 8/8 - - -
Fr, 25.11. 7:00 2100 m 8/8 8/8 - - -
Fr, 25.11. 1:00 - 0/8 0/8 - - -
Do, 24.11. 19:00 8100 m 1/8 0/8 - - -
Ortszeit Bedeckungsgrad in Achtel und Wolkenuntergrenze
Sa, 26.11. 13:30 8(90m)
Sa, 26.11. 13:20 8(90m)
Sa, 26.11. 13:10 8
Sa, 26.11. 13:00 8(90m)
Sa, 26.11. 12:50 8(90m)
Sa, 26.11. 12:40 8
Sa, 26.11. 12:30 8(90m)
Sa, 26.11. 12:00 8(90m)
Sa, 26.11. 11:30 8(90m)
Sa, 26.11. 11:00 6(90m) 7(180m) 7(420m)
Sa, 26.11. 10:30 8(<30m)
Ortszeit Luftdruck NN (hPa) Tendenz (hPa in 3 Std.)
Sa, 26.11. 13:00 1032 + 0,4
Sa, 26.11. 7:00 1030 + 1,4
Sa, 26.11. 1:00 1026 + 1,8
Fr, 25.11. 19:00 1022 + 2,1
Fr, 25.11. 13:00 1018 + 1,5
Fr, 25.11. 7:00 1015 - 0,1
Fr, 25.11. 1:00 1016 0,0
Do, 24.11. 19:00 1016 + 1,4
Ortszeit Luftdruck NN (hPa) Tendenz (hPa in 3 Std.)
Sa, 26.11. 13:30 1032 - 0,2
Sa, 26.11. 13:20 1032 keine Meldung
Sa, 26.11. 13:10 1032 keine Meldung
Sa, 26.11. 13:00 1032 + 0,4
Sa, 26.11. 12:50 1032 keine Meldung
Sa, 26.11. 12:40 1032 keine Meldung
Sa, 26.11. 12:30 1032 + 0,4
Sa, 26.11. 12:00 1032 + 0,8
Sa, 26.11. 11:30 1032 + 1,0
Sa, 26.11. 11:00 1032 + 1,6
Sa, 26.11. 10:30 1032 + 1,9
Ortszeit Schneehöhe (cm)
Sa, 26.11. 13:00 0
Sa, 26.11. 7:00 0
Sa, 26.11. 1:00 0
Fr, 25.11. 19:00 0
Fr, 25.11. 13:00 0
Fr, 25.11. 7:00 0
Fr, 25.11. 1:00 0
Do, 24.11. 19:00 0
Ortszeit Schneehöhe (cm)
Sa, 26.11. 13:30 0
Sa, 26.11. 13:20 0
Sa, 26.11. 13:10 0
Sa, 26.11. 13:00 0
Sa, 26.11. 12:50 0
Sa, 26.11. 12:40 0
Sa, 26.11. 12:30 0
Sa, 26.11. 12:00 0
Sa, 26.11. 11:30 0
Sa, 26.11. 11:00 0
Sa, 26.11. 10:30 0
Link zu dieser Seite / Seite empfehlen

Das Wetter in ...